sensor_id;sensor_type;location;lat;lon;timestamp;pressure;altitude;pressure_sealevel;temperature;humidity
37202;BME280;37799;52.390;6.136;2023-04-30T00:01:38;102367.78;;;6.08;100.00
37202;BME280;37799;52.390;6.136;2023-04-30T00:04:03;102372.91;;;6.05;100.00
37202;BME280;37799;52.390;6.136;2023-04-30T00:06:29;102364.28;;;6.03;100.00
37202;BME280;37799;52.390;6.136;2023-04-30T00:08:55;102365.06;;;5.99;100.00
37202;BME280;37799;52.390;6.136;2023-04-30T00:11:20;102373.56;;;5.95;100.00
37202;BME280;37799;52.390;6.136;2023-04-30T00:13:45;102369.22;;;5.90;100.00
37202;BME280;37799;52.390;6.136;2023-04-30T00:16:11;102370.88;;;5.88;100.00
37202;BME280;37799;52.390;6.136;2023-04-30T00:18:37;102373.41;;;5.87;100.00
37202;BME280;37799;52.390;6.136;2023-04-30T00:21:02;102371.59;;;5.83;100.00
37202;BME280;37799;52.390;6.136;2023-04-30T00:23:29;102370.66;;;5.76;100.00
37202;BME280;37799;52.390;6.136;2023-04-30T00:25:55;102367.09;;;5.71;100.00
37202;BME280;37799;52.390;6.136;2023-04-30T00:28:20;102368.78;;;5.69;100.00
37202;BME280;37799;52.390;6.136;2023-04-30T00:30:46;102358.50;;;5.69;100.00
37202;BME280;37799;52.390;6.136;2023-04-30T00:33:11;102369.63;;;5.68;100.00
37202;BME280;37799;52.390;6.136;2023-04-30T00:35:37;102373.88;;;5.66;100.00
37202;BME280;37799;52.390;6.136;2023-04-30T00:38:02;102367.97;;;5.72;100.00
37202;BME280;37799;52.390;6.136;2023-04-30T00:40:27;102368.84;;;5.72;100.00
37202;BME280;37799;52.390;6.136;2023-04-30T00:42:53;102367.22;;;5.76;100.00
37202;BME280;37799;52.390;6.136;2023-04-30T00:45:20;102373.31;;;5.82;100.00
37202;BME280;37799;52.390;6.136;2023-04-30T00:47:46;102375.84;;;5.79;100.00
37202;BME280;37799;52.390;6.136;2023-04-30T00:50:12;102372.25;;;5.71;100.00
37202;BME280;37799;52.390;6.136;2023-04-30T00:52:41;102368.75;;;5.66;100.00
37202;BME280;37799;52.390;6.136;2023-04-30T00:55:07;102369.59;;;5.67;100.00
37202;BME280;37799;52.390;6.136;2023-04-30T00:57:33;102367.88;;;5.66;100.00
37202;BME280;37799;52.390;6.136;2023-04-30T00:59:59;102367.00;;;5.65;100.00
37202;BME280;37799;52.390;6.136;2023-04-30T01:02:25;102367.06;;;5.68;100.00
37202;BME280;37799;52.390;6.136;2023-04-30T01:04:51;102364.50;;;5.70;100.00
37202;BME280;37799;52.390;6.136;2023-04-30T01:07:16;102372.25;;;5.71;100.00
37202;BME280;37799;52.390;6.136;2023-04-30T01:09:42;102373.03;;;5.67;100.00
37202;BME280;37799;52.390;6.136;2023-04-30T01:12:25;102383.22;;;5.61;100.00
37202;BME280;37799;52.390;6.136;2023-04-30T01:15:07;102381.31;;;5.52;100.00
37202;BME280;37799;52.390;6.136;2023-04-30T01:17:40;102393.09;;;5.43;100.00
37202;BME280;37799;52.390;6.136;2023-04-30T01:20:09;102380.25;;;5.41;100.00
37202;BME280;37799;52.390;6.136;2023-04-30T01:22:45;102387.91;;;5.38;100.00
37202;BME280;37799;52.390;6.136;2023-04-30T01:28:23;102390.50;;;5.40;100.00
37202;BME280;37799;52.390;6.136;2023-04-30T01:30:49;102386.19;;;5.39;100.00
37202;BME280;37799;52.390;6.136;2023-04-30T01:33:15;102382.69;;;5.35;100.00
37202;BME280;37799;52.390;6.136;2023-04-30T01:41:32;102385.00;;;5.21;100.00
37202;BME280;37799;52.390;6.136;2023-04-30T01:46:30;102383.13;;;5.14;100.00
37202;BME280;37799;52.390;6.136;2023-04-30T01:49:24;102384.78;;;5.12;100.00
37202;BME280;37799;52.390;6.136;2023-04-30T01:52:22;102389.00;;;5.09;100.00
37202;BME280;37799;52.390;6.136;2023-04-30T01:54:54;102383.78;;;5.06;100.00
37202;BME280;37799;52.390;6.136;2023-04-30T01:57:28;102383.66;;;4.99;100.00
37202;BME280;37799;52.390;6.136;2023-04-30T01:59:56;102388.56;;;4.90;100.00
37202;BME280;37799;52.390;6.136;2023-04-30T02:02:23;102387.66;;;4.87;100.00
37202;BME280;37799;52.390;6.136;2023-04-30T02:04:48;102387.72;;;4.90;100.00
37202;BME280;37799;52.390;6.136;2023-04-30T02:07:36;102393.72;;;4.90;100.00
37202;BME280;37799;52.390;6.136;2023-04-30T02:10:02;102397.97;;;4.90;100.00
37202;BME280;37799;52.390;6.136;2023-04-30T02:12:28;102403.00;;;4.84;100.00
37202;BME280;37799;52.390;6.136;2023-04-30T02:14:54;102395.19;;;4.81;100.00
37202;BME280;37799;52.390;6.136;2023-04-30T02:17:19;102403.03;;;4.85;100.00
37202;BME280;37799;52.390;6.136;2023-04-30T02:19:45;102408.16;;;4.85;100.00
37202;BME280;37799;52.390;6.136;2023-04-30T02:22:10;102402.13;;;4.83;100.00
37202;BME280;37799;52.390;6.136;2023-04-30T02:24:35;102402.84;;;4.78;100.00
37202;BME280;37799;52.390;6.136;2023-04-30T02:27:01;102404.44;;;4.72;100.00
37202;BME280;37799;52.390;6.136;2023-04-30T02:29:26;102400.22;;;4.74;100.00
37202;BME280;37799;52.390;6.136;2023-04-30T02:31:51;102405.25;;;4.70;100.00
37202;BME280;37799;52.390;6.136;2023-04-30T02:34:17;102399.25;;;4.69;100.00
37202;BME280;37799;52.390;6.136;2023-04-30T02:36:42;102398.25;;;4.64;100.00
37202;BME280;37799;52.390;6.136;2023-04-30T02:39:07;102404.22;;;4.63;100.00
37202;BME280;37799;52.390;6.136;2023-04-30T02:41:33;102395.63;;;4.61;100.00
37202;BME280;37799;52.390;6.136;2023-04-30T02:43:58;102394.69;;;4.58;100.00
37202;BME280;37799;52.390;6.136;2023-04-30T02:46:23;102399.03;;;4.60;100.00
37202;BME280;37799;52.390;6.136;2023-04-30T02:48:49;102392.16;;;4.59;100.00
37202;BME280;37799;52.390;6.136;2023-04-30T02:51:14;102394.72;;;4.59;100.00
37202;BME280;37799;52.390;6.136;2023-04-30T02:53:40;102404.22;;;4.63;100.00
37202;BME280;37799;52.390;6.136;2023-04-30T02:56:05;102391.41;;;4.65;100.00
37202;BME280;37799;52.390;6.136;2023-04-30T02:58:31;102386.25;;;4.63;100.00
37202;BME280;37799;52.390;6.136;2023-04-30T03:00:56;102390.56;;;4.64;100.00
37202;BME280;37799;52.390;6.136;2023-04-30T03:03:21;102386.19;;;4.60;100.00
37202;BME280;37799;52.390;6.136;2023-04-30T03:05:47;102387.88;;;4.58;100.00
37202;BME280;37799;52.390;6.136;2023-04-30T03:08:12;102387.72;;;4.54;100.00
37202;BME280;37799;52.390;6.136;2023-04-30T03:10:37;102386.88;;;4.53;100.00
37202;BME280;37799;52.390;6.136;2023-04-30T03:13:02;102377.47;;;4.54;100.00
37202;BME280;37799;52.390;6.136;2023-04-30T03:15:28;102379.03;;;4.47;100.00
37202;BME280;37799;52.390;6.136;2023-04-30T03:17:53;102371.31;;;4.46;100.00
37202;BME280;37799;52.390;6.136;2023-04-30T03:20:19;102367.72;;;4.39;100.00
37202;BME280;37799;52.390;6.136;2023-04-30T03:22:44;102369.38;;;4.37;100.00
37202;BME280;37799;52.390;6.136;2023-04-30T03:25:10;102376.19;;;4.35;100.00
37202;BME280;37799;52.390;6.136;2023-04-30T03:27:35;102372.03;;;4.40;100.00
37202;BME280;37799;52.390;6.136;2023-04-30T03:30:01;102372.03;;;4.40;100.00
37202;BME280;37799;52.390;6.136;2023-04-30T03:32:26;102374.50;;;4.37;100.00
37202;BME280;37799;52.390;6.136;2023-04-30T03:34:51;102371.91;;;4.35;100.00
37202;BME280;37799;52.390;6.136;2023-04-30T03:37:16;102365.22;;;4.42;100.00
37202;BME280;37799;52.390;6.136;2023-04-30T03:39:42;102363.69;;;4.49;100.00
37202;BME280;37799;52.390;6.136;2023-04-30T03:42:07;102377.50;;;4.55;100.00
37202;BME280;37799;52.390;6.136;2023-04-30T03:44:32;102366.38;;;4.55;100.00
37202;BME280;37799;52.390;6.136;2023-04-30T03:46:57;102368.25;;;4.60;100.00
37202;BME280;37799;52.390;6.136;2023-04-30T03:49:23;102377.97;;;4.75;100.00
37202;BME280;37799;52.390;6.136;2023-04-30T03:51:48;102382.34;;;4.79;100.00
37202;BME280;37799;52.390;6.136;2023-04-30T03:54:13;102379.91;;;4.85;100.00
37202;BME280;37799;52.390;6.136;2023-04-30T03:56:39;102387.59;;;4.84;100.00
37202;BME280;37799;52.390;6.136;2023-04-30T03:59:05;102383.16;;;4.78;100.00
37202;BME280;37799;52.390;6.136;2023-04-30T04:01:30;102385.75;;;4.78;100.00
37202;BME280;37799;52.390;6.136;2023-04-30T04:03:56;102379.69;;;4.74;100.00
37202;BME280;37799;52.390;6.136;2023-04-30T04:06:21;102375.44;;;4.77;100.00
37202;BME280;37799;52.390;6.136;2023-04-30T04:08:46;102370.16;;;4.69;100.00
37202;BME280;37799;52.390;6.136;2023-04-30T04:11:12;102375.22;;;4.67;100.00
37202;BME280;37799;52.390;6.136;2023-04-30T04:13:37;102370.91;;;4.65;100.00
37202;BME280;37799;52.390;6.136;2023-04-30T04:16:03;102366.69;;;4.68;100.00
37202;BME280;37799;52.390;6.136;2023-04-30T04:18:28;102370.97;;;4.68;100.00
37202;BME280;37799;52.390;6.136;2023-04-30T04:20:54;102376.88;;;4.65;100.00
37202;BME280;37799;52.390;6.136;2023-04-30T04:23:20;102378.63;;;4.66;100.00
37202;BME280;37799;52.390;6.136;2023-04-30T04:25:46;102377.84;;;4.69;100.00
37202;BME280;37799;52.390;6.136;2023-04-30T04:28:14;102376.94;;;4.68;100.00
37202;BME280;37799;52.390;6.136;2023-04-30T04:30:39;102382.03;;;4.65;100.00
37202;BME280;37799;52.390;6.136;2023-04-30T04:33:05;102380.22;;;4.61;100.00
37202;BME280;37799;52.390;6.136;2023-04-30T04:35:30;102390.53;;;4.63;100.00
37202;BME280;37799;52.390;6.136;2023-04-30T04:37:56;102384.56;;;4.64;100.00
37202;BME280;37799;52.390;6.136;2023-04-30T04:40:21;102383.75;;;4.66;100.00
37202;BME280;37799;52.390;6.136;2023-04-30T04:42:48;102392.25;;;4.64;100.00
37202;BME280;37799;52.390;6.136;2023-04-30T04:45:15;102391.44;;;4.66;100.00
37202;BME280;37799;52.390;6.136;2023-04-30T04:47:40;102394.03;;;4.66;100.00
37202;BME280;37799;52.390;6.136;2023-04-30T04:50:06;102395.75;;;4.67;100.00
37202;BME280;37799;52.390;6.136;2023-04-30T04:52:31;102394.88;;;4.67;100.00
37202;BME280;37799;52.390;6.136;2023-04-30T04:54:57;102391.56;;;4.71;100.00
37202;BME280;37799;52.390;6.136;2023-04-30T04:57:22;102391.66;;;4.74;100.00
37202;BME280;37799;52.390;6.136;2023-04-30T04:59:47;102400.50;;;4.87;100.00
37202;BME280;37799;52.390;6.136;2023-04-30T05:02:13;102402.19;;;4.86;100.00
37202;BME280;37799;52.390;6.136;2023-04-30T05:04:38;102398.03;;;4.93;100.00
37202;BME280;37799;52.390;6.136;2023-04-30T05:07:04;102396.47;;;4.98;100.00
37202;BME280;37799;52.390;6.136;2023-04-30T05:09:29;102408.53;;;5.02;100.00
37202;BME280;37799;52.390;6.136;2023-04-30T05:11:54;102402.56;;;5.03;100.00
37202;BME280;37799;52.390;6.136;2023-04-30T05:14:20;102403.72;;;5.17;100.00
37202;BME280;37799;52.390;6.136;2023-04-30T05:16:45;102405.41;;;5.17;100.00
37202;BME280;37799;52.390;6.136;2023-04-30T05:19:11;102407.16;;;5.19;100.00
37202;BME280;37799;52.390;6.136;2023-04-30T05:21:36;102410.69;;;5.23;100.00
37202;BME280;37799;52.390;6.136;2023-04-30T05:24:01;102406.59;;;5.32;100.00
37202;BME280;37799;52.390;6.136;2023-04-30T05:26:27;102416.19;;;5.40;100.00
37202;BME280;37799;52.390;6.136;2023-04-30T05:28:53;102416.38;;;5.49;100.00
37202;BME280;37799;52.390;6.136;2023-04-30T05:31:18;102412.25;;;5.58;100.00
37202;BME280;37799;52.390;6.136;2023-04-30T05:33:43;102417.41;;;5.58;100.00
37202;BME280;37799;52.390;6.136;2023-04-30T05:36:09;102417.75;;;5.75;100.00
37202;BME280;37799;52.390;6.136;2023-04-30T05:38:35;102416.03;;;5.74;100.00
37202;BME280;37799;52.390;6.136;2023-04-30T05:41:00;102427.44;;;5.88;100.00
37202;BME280;37799;52.390;6.136;2023-04-30T05:43:25;102425.78;;;5.90;100.00
37202;BME280;37799;52.390;6.136;2023-04-30T05:45:51;102429.34;;;5.99;100.00
37202;BME280;37799;52.390;6.136;2023-04-30T05:48:16;102428.81;;;6.16;100.00
37202;BME280;37799;52.390;6.136;2023-04-30T05:50:41;102435.88;;;6.27;100.00
37202;BME280;37799;52.390;6.136;2023-04-30T05:53:07;102445.84;;;6.60;100.00
37202;BME280;37799;52.390;6.136;2023-04-30T05:55:33;102445.44;;;6.90;100.00
37202;BME280;37799;52.390;6.136;2023-04-30T05:57:58;102454.53;;;7.25;100.00
37202;BME280;37799;52.390;6.136;2023-04-30T06:00:24;102449.00;;;7.61;100.00
37202;BME280;37799;52.390;6.136;2023-04-30T06:02:49;102452.72;;;7.85;100.00
37202;BME280;37799;52.390;6.136;2023-04-30T06:05:14;102454.84;;;8.22;100.00
37202;BME280;37799;52.390;6.136;2023-04-30T06:07:40;102448.63;;;9.04;100.00
37202;BME280;37799;52.390;6.136;2023-04-30T06:10:06;102444.66;;;9.79;100.00
37202;BME280;37799;52.390;6.136;2023-04-30T06:12:31;102457.72;;;10.52;100.00
37202;BME280;37799;52.390;6.136;2023-04-30T06:14:57;102463.75;;;10.92;100.00
37202;BME280;37799;52.390;6.136;2023-04-30T06:17:22;102461.09;;;11.18;100.00
37202;BME280;37799;52.390;6.136;2023-04-30T06:19:47;102459.25;;;11.54;100.00
37202;BME280;37799;52.390;6.136;2023-04-30T06:22:13;102462.56;;;11.93;100.00
37202;BME280;37799;52.390;6.136;2023-04-30T06:24:38;102470.09;;;12.37;100.00
37202;BME280;37799;52.390;6.136;2023-04-30T06:27:03;102471.59;;;12.64;100.00
37202;BME280;37799;52.390;6.136;2023-04-30T06:29:29;102479.38;;;12.65;100.00
37202;BME280;37799;52.390;6.136;2023-04-30T06:31:54;102479.31;;;12.73;100.00
37202;BME280;37799;52.390;6.136;2023-04-30T06:34:20;102479.16;;;12.88;100.00
37202;BME280;37799;52.390;6.136;2023-04-30T06:36:45;102476.75;;;12.70;100.00
37202;BME280;37799;52.390;6.136;2023-04-30T06:39:13;102477.06;;;12.30;100.00
37202;BME280;37799;52.390;6.136;2023-04-30T06:41:39;102475.22;;;12.43;100.00
37202;BME280;37799;52.390;6.136;2023-04-30T06:44:04;102482.84;;;12.63;100.00
37202;BME280;37799;52.390;6.136;2023-04-30T06:46:29;102486.47;;;12.45;100.00
37202;BME280;37799;52.390;6.136;2023-04-30T06:48:55;102482.88;;;12.60;100.00
37202;BME280;37799;52.390;6.136;2023-04-30T06:51:20;102477.56;;;12.77;100.00
37202;BME280;37799;52.390;6.136;2023-04-30T06:53:45;102484.97;;;13.16;100.00
37202;BME280;37799;52.390;6.136;2023-04-30T06:56:10;102478.44;;;13.58;100.00
37202;BME280;37799;52.390;6.136;2023-04-30T06:58:36;102491.09;;;13.87;100.00
37202;BME280;37799;52.390;6.136;2023-04-30T07:01:01;102492.00;;;13.85;100.00
37202;BME280;37799;52.390;6.136;2023-04-30T07:03:27;102478.63;;;14.11;100.00
37202;BME280;37799;52.390;6.136;2023-04-30T07:05:53;102483.16;;;14.55;100.00
37202;BME280;37799;52.390;6.136;2023-04-30T07:08:19;102482.94;;;14.69;100.00
37202;BME280;37799;52.390;6.136;2023-04-30T07:10:45;102486.78;;;14.48;100.00
37202;BME280;37799;52.390;6.136;2023-04-30T07:13:10;102479.13;;;13.73;100.00
37202;BME280;37799;52.390;6.136;2023-04-30T07:15:35;102475.13;;;13.47;100.00
37202;BME280;37799;52.390;6.136;2023-04-30T07:18:01;102473.56;;;13.31;100.00
37202;BME280;37799;52.390;6.136;2023-04-30T07:20:27;102485.03;;;13.09;100.00
37202;BME280;37799;52.390;6.136;2023-04-30T07:22:53;102482.19;;;13.35;100.00
37202;BME280;37799;52.390;6.136;2023-04-30T07:25:19;102482.84;;;13.52;100.00
37202;BME280;37799;52.390;6.136;2023-04-30T07:27:45;102479.25;;;13.62;100.00
37202;BME280;37799;52.390;6.136;2023-04-30T07:30:10;102482.41;;;13.87;100.00
37202;BME280;37799;52.390;6.136;2023-04-30T07:32:36;102486.69;;;13.94;100.00
37202;BME280;37799;52.390;6.136;2023-04-30T07:35:03;102483.13;;;13.98;100.00
37202;BME280;37799;52.390;6.136;2023-04-30T07:37:28;102482.00;;;14.16;100.00
37202;BME280;37799;52.390;6.136;2023-04-30T07:39:54;102490.13;;;14.55;100.00
37202;BME280;37799;52.390;6.136;2023-04-30T07:42:19;102494.00;;;14.85;100.00
37202;BME280;37799;52.390;6.136;2023-04-30T07:44:44;102500.03;;;15.33;100.00
37202;BME280;37799;52.390;6.136;2023-04-30T07:47:10;102489.53;;;15.38;100.00
37202;BME280;37799;52.390;6.136;2023-04-30T07:49:36;102501.88;;;15.28;100.00
37202;BME280;37799;52.390;6.136;2023-04-30T07:52:01;102503.75;;;15.21;100.00
37202;BME280;37799;52.390;6.136;2023-04-30T07:54:27;102503.03;;;15.13;100.00
37202;BME280;37799;52.390;6.136;2023-04-30T07:56:53;102504.72;;;15.16;100.00
37202;BME280;37799;52.390;6.136;2023-04-30T07:59:18;102501.13;;;15.21;100.00
37202;BME280;37799;52.390;6.136;2023-04-30T08:01:45;102507.31;;;15.17;100.00
37202;BME280;37799;52.390;6.136;2023-04-30T08:04:10;102496.16;;;15.54;99.61
37202;BME280;37799;52.390;6.136;2023-04-30T08:06:36;102496.91;;;15.59;100.00
37202;BME280;37799;52.390;6.136;2023-04-30T08:09:01;102497.34;;;15.82;100.00
37202;BME280;37799;52.390;6.136;2023-04-30T08:11:27;102495.03;;;16.07;97.23
37202;BME280;37799;52.390;6.136;2023-04-30T08:13:53;102498.47;;;15.69;95.30
37202;BME280;37799;52.390;6.136;2023-04-30T08:16:18;102501.41;;;15.52;99.35
37202;BME280;37799;52.390;6.136;2023-04-30T08:18:43;102507.00;;;15.32;97.15
37202;BME280;37799;52.390;6.136;2023-04-30T08:21:11;102503.47;;;15.37;97.84
37202;BME280;37799;52.390;6.136;2023-04-30T08:23:36;102494.97;;;15.70;98.53
37202;BME280;37799;52.390;6.136;2023-04-30T08:26:02;102494.94;;;16.12;93.57
37202;BME280;37799;52.390;6.136;2023-04-30T08:28:27;102503.50;;;16.18;96.58
37202;BME280;37799;52.390;6.136;2023-04-30T08:30:53;102501.03;;;16.49;92.59
37202;BME280;37799;52.390;6.136;2023-04-30T08:33:19;102501.44;;;16.70;89.36
37202;BME280;37799;52.390;6.136;2023-04-30T08:35:44;102509.63;;;16.55;86.93
37202;BME280;37799;52.390;6.136;2023-04-30T08:38:10;102509.44;;;16.62;86.67
37202;BME280;37799;52.390;6.136;2023-04-30T08:40:35;102509.75;;;16.86;82.27
37202;BME280;37799;52.390;6.136;2023-04-30T08:43:06;102506.03;;;17.27;80.60
37202;BME280;37799;52.390;6.136;2023-04-30T08:45:33;102511.09;;;17.95;75.74
37202;BME280;37799;52.390;6.136;2023-04-30T08:47:59;102514.06;;;18.12;71.60
37202;BME280;37799;52.390;6.136;2023-04-30T08:50:29;102515.03;;;18.38;71.93
37202;BME280;37799;52.390;6.136;2023-04-30T08:52:56;102508.63;;;18.18;71.78
37202;BME280;37799;52.390;6.136;2023-04-30T08:55:23;102511.88;;;18.26;70.77
37202;BME280;37799;52.390;6.136;2023-04-30T08:57:50;102515.44;;;18.52;67.65
37202;BME280;37799;52.390;6.136;2023-04-30T09:00:15;102512.13;;;18.73;66.57
37202;BME280;37799;52.390;6.136;2023-04-30T09:02:41;102509.16;;;18.56;69.79
37202;BME280;37799;52.390;6.136;2023-04-30T09:05:11;102507.59;;;18.22;67.91
37202;BME280;37799;52.390;6.136;2023-04-30T09:07:39;102506.31;;;18.08;71.81
37202;BME280;37799;52.390;6.136;2023-04-30T09:10:13;102504.25;;;18.45;72.62
37202;BME280;37799;52.390;6.136;2023-04-30T09:12:40;102507.25;;;18.61;68.95
37202;BME280;37799;52.390;6.136;2023-04-30T09:15:10;102499.31;;;18.64;67.22
37202;BME280;37799;52.390;6.136;2023-04-30T09:17:36;102494.97;;;18.90;68.48
37202;BME280;37799;52.390;6.136;2023-04-30T09:20:07;102501.94;;;19.14;66.52
37202;BME280;37799;52.390;6.136;2023-04-30T09:22:34;102508.47;;;19.29;67.20
37202;BME280;37799;52.390;6.136;2023-04-30T09:25:00;102505.91;;;19.01;67.57
37202;BME280;37799;52.390;6.136;2023-04-30T09:27:25;102495.69;;;18.93;64.77
37202;BME280;37799;52.390;6.136;2023-04-30T09:29:51;102497.44;;;18.68;65.46
37202;BME280;37799;52.390;6.136;2023-04-30T09:32:16;102491.50;;;18.61;69.81
37202;BME280;37799;52.390;6.136;2023-04-30T09:34:41;102486.47;;;18.55;68.38
37202;BME280;37799;52.390;6.136;2023-04-30T09:37:08;102484.28;;;18.69;68.67
37202;BME280;37799;52.390;6.136;2023-04-30T09:39:33;102484.91;;;19.01;65.12
37202;BME280;37799;52.390;6.136;2023-04-30T09:42:10;102483.00;;;19.31;67.85
37202;BME280;37799;52.390;6.136;2023-04-30T09:44:37;102476.09;;;19.75;66.37
37202;BME280;37799;52.390;6.136;2023-04-30T09:47:03;102477.78;;;20.21;61.95
37202;BME280;37799;52.390;6.136;2023-04-30T09:49:29;102468.00;;;20.47;60.96
37202;BME280;37799;52.390;6.136;2023-04-30T09:54:25;102466.50;;;20.82;59.94
37202;BME280;37799;52.390;6.136;2023-04-30T09:56:55;102461.81;;;20.48;59.97
37202;BME280;37799;52.390;6.136;2023-04-30T09:59:27;102469.88;;;20.85;60.07
37202;BME280;37799;52.390;6.136;2023-04-30T10:01:59;102463.75;;;20.85;57.03
37202;BME280;37799;52.390;6.136;2023-04-30T10:04:30;102456.97;;;21.18;53.80
37202;BME280;37799;52.390;6.136;2023-04-30T10:06:58;102464.69;;;21.23;51.29
37202;BME280;37799;52.390;6.136;2023-04-30T10:09:28;102449.88;;;21.20;49.50
37202;BME280;37799;52.390;6.136;2023-04-30T10:11:56;102454.19;;;21.21;50.07
37202;BME280;37799;52.390;6.136;2023-04-30T10:14:25;102450.16;;;21.14;50.95
37202;BME280;37799;52.390;6.136;2023-04-30T10:16:57;102445.22;;;21.46;49.49
37202;BME280;37799;52.390;6.136;2023-04-30T10:19:29;102447.00;;;21.27;48.34
37202;BME280;37799;52.390;6.136;2023-04-30T10:21:56;102450.09;;;21.36;48.44
37202;BME280;37799;52.390;6.136;2023-04-30T10:24:21;102439.22;;;21.24;47.76
37202;BME280;37799;52.390;6.136;2023-04-30T10:26:48;102440.06;;;21.24;46.81
37202;BME280;37799;52.390;6.136;2023-04-30T10:29:15;102435.56;;;20.87;50.33
37202;BME280;37799;52.390;6.136;2023-04-30T10:31:45;102429.25;;;21.30;49.86
37202;BME280;37799;52.390;6.136;2023-04-30T10:36:46;102426.03;;;21.24;49.29
37202;BME280;37799;52.390;6.136;2023-04-30T10:39:14;102424.31;;;21.62;46.97
37202;BME280;37799;52.390;6.136;2023-04-30T10:41:39;102426.94;;;21.98;48.61
37202;BME280;37799;52.390;6.136;2023-04-30T10:44:08;102419.72;;;22.20;44.74
37202;BME280;37799;52.390;6.136;2023-04-30T10:46:34;102424.50;;;22.12;45.02
37202;BME280;37799;52.390;6.136;2023-04-30T10:49:00;102415.91;;;21.90;45.97
37202;BME280;37799;52.390;6.136;2023-04-30T10:51:45;102416.63;;;21.74;46.58
37202;BME280;37799;52.390;6.136;2023-04-30T10:54:12;102412.44;;;21.89;45.91
37202;BME280;37799;52.390;6.136;2023-04-30T10:56:37;102412.28;;;21.73;47.64
37202;BME280;37799;52.390;6.136;2023-04-30T10:59:03;102409.94;;;22.22;48.66
37202;BME280;37799;52.390;6.136;2023-04-30T11:01:28;102415.91;;;22.60;45.69
37202;BME280;37799;52.390;6.136;2023-04-30T11:04:09;102409.72;;;21.91;46.14
37202;BME280;37799;52.390;6.136;2023-04-30T11:07:09;102410.38;;;21.77;48.37
37202;BME280;37799;52.390;6.136;2023-04-30T11:09:40;102404.56;;;22.24;47.79
37202;BME280;37799;52.390;6.136;2023-04-30T11:12:19;102400.41;;;22.54;46.28
37202;BME280;37799;52.390;6.136;2023-04-30T11:14:59;102403.41;;;22.47;44.94
37202;BME280;37799;52.390;6.136;2023-04-30T11:17:26;102395.00;;;22.73;44.68
37202;BME280;37799;52.390;6.136;2023-04-30T11:19:52;102392.22;;;22.24;43.59
37202;BME280;37799;52.390;6.136;2023-04-30T11:22:20;102397.53;;;22.42;45.25
37202;BME280;37799;52.390;6.136;2023-04-30T11:27:34;102385.53;;;22.86;47.09
37202;BME280;37799;52.390;6.136;2023-04-30T11:30:01;102376.56;;;23.22;44.96
37202;BME280;37799;52.390;6.136;2023-04-30T11:32:32;102372.94;;;23.72;44.63
37202;BME280;37799;52.390;6.136;2023-04-30T11:35:00;102377.28;;;23.73;42.79
37202;BME280;37799;52.390;6.136;2023-04-30T11:37:32;102383.91;;;23.80;41.58
37202;BME280;37799;52.390;6.136;2023-04-30T11:40:03;102369.72;;;23.81;42.62
37202;BME280;37799;52.390;6.136;2023-04-30T11:42:30;102375.72;;;23.53;42.33
37202;BME280;37799;52.390;6.136;2023-04-30T11:47:47;102362.69;;;22.85;45.87
37202;BME280;37799;52.390;6.136;2023-04-30T11:50:14;102354.84;;;22.84;44.42
37202;BME280;37799;52.390;6.136;2023-04-30T11:52:40;102352.88;;;22.54;44.35
37202;BME280;37799;52.390;6.136;2023-04-30T11:55:11;102350.50;;;22.65;44.59
37202;BME280;37799;52.390;6.136;2023-04-30T11:57:48;102355.06;;;22.29;47.15
37202;BME280;37799;52.390;6.136;2023-04-30T12:00:27;102357.38;;;22.35;44.97
37202;BME280;37799;52.390;6.136;2023-04-30T12:02:53;102354.31;;;22.27;44.90
37202;BME280;37799;52.390;6.136;2023-04-30T12:05:20;102348.41;;;21.86;46.41
37202;BME280;37799;52.390;6.136;2023-04-30T12:07:50;102346.16;;;22.14;47.32
37202;BME280;37799;52.390;6.136;2023-04-30T12:10:19;102337.03;;;22.54;48.88
37202;BME280;37799;52.390;6.136;2023-04-30T12:12:47;102332.09;;;22.81;44.43
37202;BME280;37799;52.390;6.136;2023-04-30T12:15:15;102340.00;;;22.81;45.07
37202;BME280;37799;52.390;6.136;2023-04-30T12:17:40;102332.75;;;22.52;44.52
37202;BME280;37799;52.390;6.136;2023-04-30T12:20:07;102334.63;;;22.50;45.01
37202;BME280;37799;52.390;6.136;2023-04-30T12:22:33;102341.09;;;22.10;46.14
37202;BME280;37799;52.390;6.136;2023-04-30T12:25:11;102332.03;;;22.15;45.32
37202;BME280;37799;52.390;6.136;2023-04-30T12:27:39;102330.94;;;22.19;47.91
37202;BME280;37799;52.390;6.136;2023-04-30T12:30:05;102330.19;;;21.98;47.07
37202;BME280;37799;52.390;6.136;2023-04-30T12:32:44;102328.78;;;22.27;47.08
37202;BME280;37799;52.390;6.136;2023-04-30T12:35:21;102323.72;;;22.40;46.55
37202;BME280;37799;52.390;6.136;2023-04-30T12:37:49;102326.56;;;22.35;45.63
37202;BME280;37799;52.390;6.136;2023-04-30T12:40:17;102320.69;;;22.63;44.30
37202;BME280;37799;52.390;6.136;2023-04-30T12:42:43;102318.09;;;22.79;45.48
37202;BME280;37799;52.390;6.136;2023-04-30T12:45:09;102319.28;;;22.41;45.37
37202;BME280;37799;52.390;6.136;2023-04-30T12:47:39;102317.72;;;22.36;48.20
37202;BME280;37799;52.390;6.136;2023-04-30T12:50:09;102312.84;;;22.62;45.56
37202;BME280;37799;52.390;6.136;2023-04-30T12:52:35;102305.81;;;23.11;43.28
37202;BME280;37799;52.390;6.136;2023-04-30T12:57:39;102307.56;;;22.62;45.94
37202;BME280;37799;52.390;6.136;2023-04-30T13:00:05;102296.47;;;22.22;46.61
37202;BME280;37799;52.390;6.136;2023-04-30T13:02:32;102304.53;;;22.36;47.71
37202;BME280;37799;52.390;6.136;2023-04-30T13:04:58;102294.88;;;22.53;45.25
37202;BME280;37799;52.390;6.136;2023-04-30T13:07:23;102291.63;;;22.48;45.67
37202;BME280;37799;52.390;6.136;2023-04-30T13:09:49;102293.56;;;22.44;45.23
37202;BME280;37799;52.390;6.136;2023-04-30T13:12:14;102289.16;;;22.45;44.72